Time;durP1;ratioP1;P1;durP2;ratioP2;P2;SDS_P1;SDS_P2;PMS_P1;PMS_P2;Temp;Humidity;BMP_temperature;BMP_pressure;BME280_temperature;BME280_humidity;BME280_pressure;Samples;Min_cycle;Max_cycle;Signal;HPM_P1;HPM_P2
2022/05/21 00:02:13;;;;;;;4.37;2.50;;;;;;;20.42;49.78;99677.09;7697479;32;38005;-73
2022/05/21 00:06:29;;;;;;;8.18;3.40;;;;;;;20.56;49.21;99661.00;7710677;32;36924;-73
2022/05/21 00:10:46;;;;;;;2.72;2.10;;;;;;;20.41;49.17;99656.09;7710711;32;39854;-73
2022/05/21 00:15:02;;;;;;;5.82;2.70;;;;;;;20.41;48.61;99642.25;7709375;32;39932;-72
2022/05/21 00:19:18;;;;;;;4.62;2.12;;;;;;;20.36;48.68;99629.44;7700423;32;37949;-73
2022/05/21 00:23:35;;;;;;;4.53;2.45;;;;;;;20.32;48.84;99622.19;7710491;32;37593;-73
2022/05/21 00:27:51;;;;;;;8.85;2.75;;;;;;;20.22;49.32;99618.66;7708696;32;39251;-73
2022/05/21 00:32:07;;;;;;;3.75;2.40;;;;;;;20.26;49.44;99625.16;7710321;32;40149;-73
2022/05/21 00:36:24;;;;;;;3.87;2.55;;;;;;;20.33;49.56;99630.13;7699768;32;38723;-73
2022/05/21 00:40:40;;;;;;;4.10;2.37;;;;;;;20.04;50.71;99634.63;7710088;32;36880;-73
2022/05/21 00:44:56;;;;;;;7.68;2.45;;;;;;;20.16;50.31;99641.34;7708896;32;39017;-73
2022/05/21 00:49:18;;;;;;;6.30;2.95;;;;;;;20.24;50.39;99634.94;7709963;32;39775;-73
2022/05/21 00:53:34;;;;;;;5.80;3.00;;;;;;;20.14;50.90;99622.31;7699436;32;39020;-73
2022/05/21 01:02:55;;;;;;;4.40;2.53;;;;;;;20.15;51.51;99657.16;7687887;32;39341;-73
2022/05/21 01:07:15;;;;;;;5.10;2.62;;;;;;;19.95;52.35;99675.38;7683531;32;39143;-73
2022/05/21 01:11:32;;;;;;;3.22;2.60;;;;;;;19.95;51.94;99680.13;7691057;32;38013;-73
2022/05/21 01:15:51;;;;;;;6.20;2.85;;;;;;;19.88;51.98;99680.66;7682657;32;36928;-73
2022/05/21 01:20:13;;;;;;;6.03;2.50;;;;;;;19.74;52.30;99675.38;7682557;32;39999;-72
2022/05/21 01:24:29;;;;;;;4.78;2.80;;;;;;;19.98;51.32;99673.91;7686176;32;40035;-72
2022/05/21 01:28:46;;;;;;;4.95;3.17;;;;;;;20.00;51.20;99666.88;7690643;32;38042;-72
2022/05/21 01:33:07;;;;;;;4.12;2.78;;;;;;;19.79;52.01;99666.09;7682439;32;37530;-72
2022/05/21 01:37:23;;;;;;;7.43;2.90;;;;;;;19.67;52.47;99667.59;7692782;32;39197;-73
2022/05/21 01:41:44;;;;;;;8.25;3.53;;;;;;;19.59;52.56;99667.66;7707219;32;40712;-72
2022/05/21 01:46:00;;;;;;;4.68;2.60;;;;;;;19.58;52.56;99682.63;7681626;32;37639;-72
2022/05/21 01:50:17;;;;;;;5.28;2.65;;;;;;;19.68;52.51;99709.91;7682654;32;37199;-73
2022/05/21 01:54:34;;;;;;;4.78;2.80;;;;;;;19.56;53.29;99746.56;7685574;32;39906;-73
2022/05/21 01:58:50;;;;;;;6.75;3.05;;;;;;;19.43;53.81;99751.16;7685328;32;39797;-73
2022/05/21 02:03:11;;;;;;;5.75;3.20;;;;;;;19.35;54.01;99810.06;7684352;32;37858;-74
2022/05/21 02:07:27;;;;;;;4.68;3.10;;;;;;;19.32;55.56;99807.97;7685538;32;36887;-72
2022/05/21 02:11:44;;;;;;;6.80;3.33;;;;;;;19.39;55.95;99846.97;7685563;32;39153;-72
2022/05/21 02:16:00;;;;;;;5.60;3.30;;;;;;;19.31;56.83;99867.94;7686548;32;40957;-73
2022/05/21 02:20:17;;;;;;;4.25;2.72;;;;;;;19.26;56.99;99886.66;7693198;32;38842;-72
2022/05/21 02:24:33;;;;;;;7.35;3.30;;;;;;;19.09;57.98;99899.38;7684163;32;37697;-73
2022/05/21 02:28:49;;;;;;;6.07;3.58;;;;;;;19.23;57.54;99895.59;7685466;32;39181;-74
2022/05/21 02:33:05;;;;;;;10.02;3.80;;;;;;;18.99;60.26;99926.50;7686360;32;40170;-73
2022/05/21 02:42:00;;;;;;;7.07;3.87;;;;;;;18.83;60.95;99960.12;7685365;32;37704;-73
2022/05/21 02:46:16;;;;;;;9.30;4.80;;;;;;;18.81;61.89;99980.88;7685913;32;39927;-72
2022/05/21 02:50:34;;;;;;;10.20;4.28;;;;;;;18.54;63.35;99978.06;7688357;32;40336;-73
2022/05/21 02:54:51;;;;;;;7.97;4.22;;;;;;;18.48;64.25;99975.78;7690126;32;37812;-73
2022/05/21 02:59:07;;;;;;;9.65;4.85;;;;;;;18.59;63.59;99974.34;7685074;32;36962;-73
2022/05/21 03:03:23;;;;;;;9.75;4.60;;;;;;;18.99;62.55;99959.66;7684918;32;39374;-73
2022/05/21 03:07:41;;;;;;;11.35;5.00;;;;;;;19.03;63.29;99955.13;7687005;32;39953;-74
2022/05/21 03:11:57;;;;;;;10.63;5.35;;;;;;;19.04;63.08;99949.25;7690118;32;37666;-73
2022/05/21 03:16:13;;;;;;;8.85;5.05;;;;;;;19.25;63.16;99954.13;7690475;32;37453;-72
2022/05/21 03:20:30;;;;;;;12.43;5.57;;;;;;;19.17;63.80;99943.91;7688356;32;39301;-72
2022/05/21 03:24:46;;;;;;;8.25;5.20;;;;;;;19.36;63.58;99947.13;7688269;32;40713;-72
2022/05/21 03:29:02;;;;;;;8.95;4.95;;;;;;;19.24;64.48;99928.44;7689959;32;37828;-73
2022/05/21 03:33:18;;;;;;;8.27;5.00;;;;;;;19.20;64.54;99912.84;7692161;32;36742;-73
2022/05/21 03:37:36;;;;;;;7.40;5.30;;;;;;;19.12;65.60;99879.34;7711393;32;39041;-73
2022/05/21 03:41:52;;;;;;;8.73;5.07;;;;;;;19.42;64.08;99868.44;7706796;32;39901;-73
2022/05/21 03:46:08;;;;;;;9.95;5.18;;;;;;;19.27;64.63;99863.41;7686442;32;38055;-72
2022/05/21 03:50:27;;;;;;;12.25;5.50;;;;;;;18.74;66.96;99841.31;7684584;32;36916;-72
2022/05/21 03:54:43;;;;;;;12.93;5.15;;;;;;;18.92;67.10;99831.13;7684297;32;39978;-72
2022/05/21 03:58:59;;;;;;;8.93;4.87;;;;;;;19.12;66.58;99796.47;7687117;32;40031;-72
2022/05/21 04:03:16;;;;;;;7.40;4.25;;;;;;;19.36;65.73;99769.41;7703798;32;38195;-72
2022/05/21 04:07:32;;;;;;;9.30;4.93;;;;;;;19.76;64.77;99746.97;7710816;32;37132;-72
2022/05/21 04:11:48;;;;;;;6.85;4.05;;;;;;;19.81;64.97;99730.97;7710214;32;39767;-73
2022/05/21 04:16:05;;;;;;;9.15;3.67;;;;;;;19.68;65.09;99749.41;7710732;32;39704;-73
2022/05/21 04:20:23;;;;;;;8.05;3.90;;;;;;;19.56;66.11;99759.56;7702641;32;37911;-72
2022/05/21 04:24:39;;;;;;;7.07;4.20;;;;;;;19.68;65.61;99748.63;7703097;32;38487;-72
2022/05/21 04:28:55;;;;;;;7.15;3.87;;;;;;;19.79;65.22;99724.97;7710601;32;39260;-72
2022/05/21 04:33:11;;;;;;;6.30;3.72;;;;;;;19.89;65.19;99743.16;7709069;32;40035;-71
2022/05/21 04:37:27;;;;;;;9.20;4.03;;;;;;;19.86;65.63;99775.03;7710224;32;37955;-72
2022/05/21 04:41:43;;;;;;;6.80;4.22;;;;;;;19.79;66.27;99780.28;7710195;32;37845;-72
2022/05/21 04:46:00;;;;;;;9.25;4.80;;;;;;;19.88;66.41;99783.00;7693756;32;39221;-71
2022/05/21 04:50:16;;;;;;;9.48;5.00;;;;;;;19.86;66.13;99793.59;7700885;32;39957;-72
2022/05/21 04:54:32;;;;;;;7.45;4.72;;;;;;;19.92;66.40;99797.81;7684824;32;37859;-72
2022/05/21 04:58:48;;;;;;;7.07;4.70;;;;;;;19.98;66.64;99801.19;7683118;32;37448;-72
2022/05/21 05:03:10;;;;;;;8.35;5.15;;;;;;;20.21;65.71;99809.97;7685937;32;39844;-72
2022/05/21 05:07:26;;;;;;;8.60;5.95;;;;;;;20.03;66.82;99820.38;7693198;32;39967;-72
2022/05/21 05:11:42;;;;;;;8.25;6.03;;;;;;;20.22;66.30;99817.94;7682766;32;38647;-71
2022/05/21 05:15:58;;;;;;;8.32;5.25;;;;;;;20.03;67.05;99836.97;7684473;32;36671;-72
2022/05/21 05:20:14;;;;;;;12.48;6.25;;;;;;;20.14;65.84;99857.56;7701577;32;39825;-72
2022/05/21 05:24:30;;;;;;;10.43;6.25;;;;;;;19.68;68.06;99870.28;7694648;32;39790;-72
2022/05/21 05:28:46;;;;;;;12.20;8.82;;;;;;;19.79;67.67;99876.31;7686002;32;37606;-71
2022/05/21 05:33:03;;;;;;;11.18;6.72;;;;;;;19.72;67.66;99867.69;7685955;32;36892;-75
2022/05/21 05:37:19;;;;;;;11.52;5.97;;;;;;;19.58;68.51;99865.13;7686627;32;39214;-77
2022/05/21 05:41:38;;;;;;;8.70;5.53;;;;;;;19.45;68.67;99864.97;7692094;32;39716;-78
2022/05/21 05:45:58;;;;;;;12.40;7.43;;;;;;;19.78;67.84;99869.13;7685676;32;39416;-76
2022/05/21 05:50:15;;;;;;;10.00;5.68;;;;;;;19.37;69.40;99859.47;7690767;32;37912;-78
2022/05/21 05:54:33;;;;;;;12.55;5.35;;;;;;;19.33;69.76;99859.31;7712054;32;39980;-77
2022/05/21 06:03:24;;;;;;;7.55;4.20;;;;;;;19.10;69.90;99818.09;7712385;32;39164;-78
2022/05/21 06:08:00;;;;;;;10.57;5.60;;;;;;;19.22;70.40;99813.84;7709280;32;37509;-77
2022/05/21 06:12:16;;;;;;;9.65;5.70;;;;;;;19.07;71.57;99853.84;7709900;32;38794;-78
2022/05/21 06:16:32;;;;;;;11.18;5.35;;;;;;;18.65;73.34;99854.34;7711546;32;41233;-75
2022/05/21 06:20:50;;;;;;;9.82;4.07;;;;;;;18.37;74.15;99842.78;7712004;32;37592;-76
2022/05/21 06:25:07;;;;;;;11.12;4.00;;;;;;;18.52;74.15;99827.69;7711122;32;36701;-75
2022/05/21 06:29:23;;;;;;;9.55;4.32;;;;;;;18.63;74.13;99820.72;7712242;32;39207;-72
2022/05/21 06:33:39;;;;;;;9.13;4.10;;;;;;;18.94;73.02;99803.19;7712018;32;39876;-72
2022/05/21 06:37:56;;;;;;;11.20;5.00;;;;;;;18.82;73.29;99798.31;7711604;32;37818;-73
2022/05/21 06:42:13;;;;;;;14.07;4.70;;;;;;;19.05;72.85;99801.69;7711821;32;36998;-74
2022/05/21 06:46:29;;;;;;;10.25;4.30;;;;;;;19.33;72.19;99795.75;7711812;32;39973;-72
2022/05/21 06:50:45;;;;;;;9.18;4.20;;;;;;;19.66;71.51;99806.19;7711796;32;40847;-76
2022/05/21 06:55:02;;;;;;;17.30;4.75;;;;;;;20.12;70.66;99810.03;7710280;32;37764;-74
2022/05/21 06:59:18;;;;;;;8.50;4.15;;;;;;;20.43;70.29;99806.09;7711639;32;36984;-76
2022/05/21 07:03:35;;;;;;;9.57;4.90;;;;;;;20.59;70.41;99804.34;7711690;32;38963;-76
2022/05/21 07:07:51;;;;;;;8.70;4.90;;;;;;;20.99;68.49;99806.59;7711473;32;40773;-74
2022/05/21 07:12:08;;;;;;;10.00;4.65;;;;;;;21.00;67.86;99805.44;7711589;32;37871;-75
2022/05/21 07:16:24;;;;;;;9.98;3.85;;;;;;;20.95;66.50;99808.41;7711511;32;37758;-75
2022/05/21 07:20:40;;;;;;;9.82;3.87;;;;;;;20.58;67.58;99824.06;7711504;32;40429;-74
2022/05/21 07:24:57;;;;;;;7.53;3.58;;;;;;;20.91;66.94;99820.53;7710306;32;39740;-74
2022/05/21 07:29:13;;;;;;;6.97;3.95;;;;;;;20.93;67.09;99821.00;7711252;32;38740;-76
2022/05/21 07:33:29;;;;;;;8.20;4.32;;;;;;;20.84;67.60;99826.63;7711355;32;36993;-74
2022/05/21 07:37:46;;;;;;;4.93;3.45;;;;;;;21.06;66.55;99821.84;7711173;32;39266;-75
2022/05/21 07:42:03;;;;;;;8.25;4.10;;;;;;;20.95;68.08;99827.00;7711242;32;39756;-76
2022/05/21 07:46:19;;;;;;;7.53;3.22;;;;;;;20.69;67.82;99841.91;7710131;32;38581;-75
2022/05/21 07:50:35;;;;;;;7.07;3.10;;;;;;;21.15;67.64;99847.53;7711044;32;36973;-75
2022/05/21 07:54:52;;;;;;;10.32;3.22;;;;;;;21.11;66.45;99843.78;7710854;32;39334;-75
2022/05/21 07:59:08;;;;;;;8.50;3.30;;;;;;;21.42;65.50;99839.72;7710925;32;39957;-76
2022/05/21 08:03:25;;;;;;;8.82;3.28;;;;;;;21.57;64.89;99839.88;7710895;32;37837;-76
2022/05/21 08:07:41;;;;;;;5.93;3.08;;;;;;;21.50;65.04;99836.09;7710785;32;37030;-74
2022/05/21 08:11:57;;;;;;;5.93;3.15;;;;;;;21.28;67.59;99832.53;7709564;32;39196;-76
2022/05/21 08:16:14;;;;;;;7.10;3.05;;;;;;;22.09;66.00;99815.38;7710877;32;40862;-76
2022/05/21 08:20:31;;;;;;;9.63;3.87;;;;;;;22.12;66.49;99821.06;7710519;32;37714;-69
2022/05/21 08:29:23;;;;;;;6.93;3.58;;;;;;;22.44;62.59;99810.16;7710530;32;39209;-76
2022/05/21 08:33:39;;;;;;;7.30;3.75;;;;;;;22.76;61.50;99818.59;7709987;32;39999;-74
2022/05/21 08:37:55;;;;;;;8.60;3.80;;;;;;;22.40;62.71;99808.44;7710110;32;37985;-74
2022/05/21 08:42:17;;;;;;;11.73;4.35;;;;;;;22.92;61.84;99799.22;7709993;32;37074;-74
2022/05/21 08:46:44;;;;;;;10.05;4.30;;;;;;;23.05;61.42;99802.72;7710049;32;39277;-76
2022/05/21 08:51:05;;;;;;;11.40;3.83;;;;;;;23.60;62.52;99789.88;7709971;32;41312;-76
2022/05/21 08:55:31;;;;;;;10.40;3.97;;;;;;;23.65;57.48;99790.78;7708540;32;37840;-75
2022/05/21 08:59:55;;;;;;;8.15;4.50;;;;;;;23.22;59.14;99788.53;7710742;32;37853;-75
2022/05/21 09:04:13;;;;;;;7.60;3.85;;;;;;;23.32;58.70;99795.53;7713172;32;40172;-75
2022/05/21 09:09:17;;;;;;;8.65;3.72;;;;;;;23.94;57.30;99798.69;7712838;32;40950;-76
2022/05/21 09:13:57;;;;;;;7.43;3.62;;;;;;;24.56;56.18;99792.50;7655853;32;38648;-77
2022/05/21 09:18:14;;;;;;;6.72;3.85;;;;;;;24.72;52.20;99804.38;7686640;32;36828;-77
2022/05/21 09:22:31;;;;;;;10.05;3.50;;;;;;;24.71;53.13;99790.78;7712865;32;39978;-77
2022/05/21 09:27:24;;;;;;;6.97;3.35;;;;;;;24.69;51.57;99793.94;7712675;32;39966;-73
2022/05/21 09:31:40;;;;;;;8.23;3.50;;;;;;;25.08;51.96;99799.50;7711751;32;37710;-75
2022/05/21 09:35:58;;;;;;;6.80;3.28;;;;;;;25.27;50.96;99800.66;7712656;32;36680;-75
2022/05/21 09:40:34;;;;;;;4.80;2.78;;;;;;;25.04;47.61;99803.37;7712750;32;39241;-75
2022/05/21 09:49:30;;;;;;;3.67;2.50;;;;;;;25.14;47.05;99796.41;7712418;32;38048;-77
2022/05/21 09:53:47;;;;;;;14.25;2.78;;;;;;;25.64;46.14;99802.87;7712336;32;36653;-76
2022/05/21 09:58:13;;;;;;;4.72;2.53;;;;;;;25.82;44.16;99781.63;7702545;32;39513;-75
2022/05/21 10:02:47;;;;;;;8.00;2.72;;;;;;;26.13;43.27;99782.53;7684406;32;40782;-75
2022/05/21 10:12:10;;;;;;;10.52;2.47;;;;;;;25.28;39.86;99791.09;7710348;32;36886;-76
2022/05/21 10:16:51;;;;;;;7.78;2.70;;;;;;;25.18;40.96;99797.25;7712078;32;38967;-76
2022/05/21 10:21:19;;;;;;;4.28;2.42;;;;;;;25.24;43.17;99807.75;7698717;32;39911;-76
2022/05/21 10:26:01;;;;;;;5.25;2.12;;;;;;;25.29;42.59;99801.91;7685342;32;37916;-75
2022/05/21 10:30:40;;;;;;;4.65;1.83;;;;;;;25.28;41.49;99797.50;7685432;32;36986;-76
2022/05/21 10:35:31;;;;;;;2.95;1.90;;;;;;;25.07;41.03;99795.06;7685303;32;39992;-76
2022/05/21 10:40:07;;;;;;;5.00;1.80;;;;;;;25.59;37.99;99787.25;7684394;32;39999;-76
2022/05/21 10:44:51;;;;;;;3.58;2.03;;;;;;;24.81;40.08;99784.62;7685265;32;38095;-75
2022/05/21 10:49:26;;;;;;;3.85;1.80;;;;;;;25.67;38.33;99763.06;7690948;32;37172;-76
2022/05/21 10:54:16;;;;;;;4.80;2.10;;;;;;;26.09;35.87;99762.09;7699749;32;39230;-75
2022/05/21 10:58:46;;;;;;;4.28;2.05;;;;;;;26.10;37.39;99752.53;7697751;32;39865;-76
2022/05/21 11:03:24;;;;;;;4.57;2.20;;;;;;;26.35;36.44;99752.06;7702588;32;37638;-74
2022/05/21 11:07:52;;;;;;;5.07;1.85;;;;;;;26.19;36.03;99761.44;7684906;32;36991;-75
2022/05/21 11:12:25;;;;;;;3.70;1.83;;;;;;;27.02;34.97;99758.84;7703150;32;39278;-76
2022/05/21 11:16:43;;;;;;;5.10;1.60;;;;;;;27.37;34.45;99752.00;7711609;32;39946;-76
2022/05/21 11:21:00;;;;;;;8.50;1.98;;;;;;;27.23;34.43;99750.66;7709823;32;36906;-76
2022/05/21 11:25:21;;;;;;;4.87;2.20;;;;;;;26.46;33.35;99758.59;7711164;32;37647;-76
2022/05/21 11:29:47;;;;;;;6.22;2.70;;;;;;;27.10;33.88;99746.53;7711349;32;39378;-77
2022/05/21 11:38:46;;;;;;;8.55;2.15;;;;;;;27.43;30.20;99750.47;7709338;32;36667;-78
2022/05/21 11:43:02;;;;;;;3.42;1.75;;;;;;;26.96;30.99;99752.81;7710319;32;36919;-79
2022/05/21 11:47:21;;;;;;;1.80;1.55;;;;;;;26.82;29.92;99739.47;7710535;32;39967;-76
2022/05/21 11:51:38;;;;;;;3.60;1.80;;;;;;;27.50;30.44;99737.31;7711185;32;40008;-76
2022/05/21 11:56:08;;;;;;;3.00;1.33;;;;;;;28.34;28.94;99733.84;7709712;32;38851;-74
2022/05/21 12:00:24;;;;;;;4.37;1.80;;;;;;;27.97;28.51;99734.84;7711170;32;37102;-76
2022/05/21 12:04:40;;;;;;;9.43;3.25;;;;;;;28.31;26.12;99737.44;7711030;32;39318;-76
2022/05/21 12:09:10;;;;;;;3.55;1.65;;;;;;;28.53;27.03;99731.91;7710924;32;41216;-76
2022/05/21 12:13:36;;;;;;;6.43;1.67;;;;;;;28.97;27.62;99726.03;7710797;32;38675;-77
2022/05/21 12:17:52;;;;;;;3.10;1.45;;;;;;;29.32;27.98;99734.91;7710622;32;36865;-77
2022/05/21 12:22:09;;;;;;;4.22;1.42;;;;;;;29.48;26.64;99732.50;7710664;32;39250;-77
2022/05/21 12:26:37;;;;;;;2.67;1.60;;;;;;;29.39;26.06;99726.50;7710517;32;40360;-83
2022/05/21 12:31:01;;;;;;;2.95;1.77;;;;;;;28.25;25.93;99733.38;7709281;32;37864;-82
2022/05/21 12:35:26;;;;;;;2.62;1.45;;;;;;;29.14;27.80;99724.44;7710240;32;35630;-83
2022/05/21 12:39:54;;;;;;;4.12;1.90;;;;;;;29.43;28.42;99724.47;7710565;32;39187;-81
2022/05/21 12:44:11;;;;;;;2.12;1.58;;;;;;;29.04;27.78;99730.84;7709766;32;40772;-80
2022/05/21 12:48:35;;;;;;;5.62;1.67;;;;;;;29.46;26.48;99720.88;7697498;32;37825;-75
2022/05/21 12:52:57;;;;;;;3.85;1.73;;;;;;;30.00;25.10;99698.31;7693849;32;321729;-75
2022/05/21 12:57:13;;;;;;;4.53;1.77;;;;;;;29.49;26.34;99714.44;7704898;32;39178;-77
2022/05/21 13:01:30;;;;;;;6.32;1.90;;;;;;;28.72;26.41;99723.19;7691390;32;39932;-76
2022/05/21 13:05:50;;;;;;;4.43;1.70;;;;;;;29.25;26.58;99701.22;7689371;32;37708;-77
2022/05/21 13:10:19;;;;;;;5.72;1.87;;;;;;;28.77;26.74;99705.97;7682881;32;36724;-76
2022/05/21 13:14:37;;;;;;;4.78;1.80;;;;;;;28.74;25.76;99712.37;7707580;32;39285;-77
2022/05/21 13:19:08;;;;;;;3.22;1.87;;;;;;;28.34;28.38;99694.59;7708128;32;41543;-77
2022/05/21 13:24:06;;;;;;;2.42;1.90;;;;;;;28.21;27.87;99707.34;7701860;32;38632;-80
2022/05/21 13:28:25;;;;;;;4.50;2.05;;;;;;;27.27;28.68;99711.50;7702031;32;37007;-78
2022/05/21 13:32:41;;;;;;;2.85;1.52;;;;;;;27.77;27.65;99697.09;7695042;32;39176;-78
2022/05/21 13:37:02;;;;;;;5.37;1.62;;;;;;;27.54;29.78;99710.16;7708908;32;39906;-79
2022/05/21 13:41:27;;;;;;;8.93;2.00;;;;;;;27.21;29.87;99694.28;7704829;32;37806;-79
2022/05/21 13:45:59;;;;;;;3.25;1.70;;;;;;;27.95;30.48;99700.81;7708988;32;37001;-78
2022/05/21 13:50:18;;;;;;;6.17;1.90;;;;;;;28.63;29.47;99697.50;7711106;32;39528;-79
2022/05/21 13:54:34;;;;;;;5.47;1.58;;;;;;;28.73;29.53;99687.50;7705450;32;40539;-79
2022/05/21 13:59:15;;;;;;;4.68;1.95;;;;;;;29.00;26.05;99694.38;7710939;32;37599;-79
2022/05/21 14:03:47;;;;;;;3.92;1.20;;;;;;;28.60;25.21;99681.50;7711038;32;37150;-78
2022/05/21 14:08:18;;;;;;;1.83;1.12;;;;;;;29.28;22.53;99689.19;7712298;32;39314;-79
2022/05/21 14:12:50;;;;;;;2.08;1.30;;;;;;;28.61;20.44;99686.72;7697804;32;39968;-78
2022/05/21 14:17:34;;;;;;;2.80;1.10;;;;;;;29.62;19.69;99685.97;7685735;32;38747;-79
2022/05/21 14:22:06;;;;;;;10.18;1.12;;;;;;;29.75;18.46;99682.31;7687146;32;37488;-79
2022/05/21 14:26:22;;;;;;;5.40;1.10;;;;;;;30.11;17.40;99670.16;7685696;32;39910;-78
2022/05/21 14:30:40;;;;;;;4.10;1.30;;;;;;;29.92;18.27;99677.84;7704092;32;39966;-79
2022/05/21 14:35:15;;;;;;;1.55;0.98;;;;;;;29.34;18.95;99665.13;7685220;32;36949;-78
2022/05/21 14:39:31;;;;;;;2.75;1.20;;;;;;;29.01;17.87;99669.91;7685223;32;37904;-78
2022/05/21 14:43:47;;;;;;;5.72;1.25;;;;;;;29.55;18.04;99661.50;7706312;32;39216;-77
2022/05/21 14:48:04;;;;;;;1.80;1.10;;;;;;;29.66;19.19;99664.25;7711609;32;39939;-78
2022/05/21 14:56:55;;;;;;;5.15;1.45;;;;;;;29.78;19.32;99645.00;7695517;32;37710;-78
2022/05/21 15:01:11;;;;;;;2.65;1.10;;;;;;;30.35;18.91;99643.16;7707987;32;39687;-78
2022/05/21 15:05:30;;;;;;;3.85;1.25;;;;;;;29.99;17.86;99645.31;7711636;32;39949;-79
2022/05/21 15:09:46;;;;;;;3.55;1.00;;;;;;;29.76;18.98;99646.62;7710349;32;37001;-80
2022/05/21 15:14:02;;;;;;;2.22;0.82;;;;;;;29.95;17.93;99651.75;7688881;32;36889;-80
2022/05/21 15:18:19;;;;;;;5.62;1.00;;;;;;;29.51;19.97;99630.63;7697100;32;39178;-81
2022/05/21 15:22:36;;;;;;;2.70;0.95;;;;;;;29.66;19.75;99659.44;7698313;32;41578;-81
2022/05/21 15:26:53;;;;;;;3.75;1.00;;;;;;;29.71;20.00;99647.00;7687332;32;38795;-79
2022/05/21 15:31:10;;;;;;;4.20;0.93;;;;;;;29.33;20.00;99636.25;7701636;32;36997;-79
2022/05/21 15:35:26;;;;;;;7.35;1.02;;;;;;;29.89;20.15;99624.47;7701673;32;39891;-79
2022/05/21 15:39:42;;;;;;;1.92;1.10;;;;;;;29.68;20.21;99622.53;7698845;32;40606;-79
2022/05/21 15:43:58;;;;;;;3.03;1.30;;;;;;;29.51;20.32;99607.31;7683836;32;37681;-80
2022/05/21 15:48:15;;;;;;;3.62;1.00;;;;;;;29.24;20.46;99604.19;7684745;32;36964;-80
2022/05/21 15:52:33;;;;;;;2.37;1.25;;;;;;;29.39;20.43;99597.34;7695355;32;39165;-80
2022/05/21 15:56:53;;;;;;;3.55;1.15;;;;;;;29.23;20.90;99605.37;7710265;32;38901;-78
2022/05/21 16:01:09;;;;;;;4.18;1.23;;;;;;;29.38;21.45;99598.53;7710966;32;37848;-79
2022/05/21 16:05:29;;;;;;;5.90;1.23;;;;;;;29.57;20.55;99597.28;7709951;32;37550;-79
2022/05/21 16:09:48;;;;;;;5.62;0.93;;;;;;;28.89;21.72;99597.37;7710376;32;39249;-79
2022/05/21 16:14:05;;;;;;;3.10;0.98;;;;;;;29.34;21.21;99597.75;7711000;32;40522;-79
2022/05/21 16:18:21;;;;;;;1.27;1.12;;;;;;;28.86;19.98;99595.38;7710766;32;38704;-78
2022/05/21 16:22:42;;;;;;;2.30;0.85;;;;;;;28.59;19.54;99599.34;7700406;32;36937;-78
2022/05/21 16:27:10;;;;;;;3.83;0.70;;;;;;;28.39;19.82;99592.47;7708374;32;39359;-78
2022/05/21 16:31:26;;;;;;;3.60;1.10;;;;;;;28.23;21.10;99601.25;7710694;32;39978;-89
2022/05/21 16:35:47;;;;;;;4.28;1.00;;;;;;;28.41;20.91;99598.50;7707978;32;38591;-76
2022/05/21 16:40:04;;;;;;;10.38;2.50;;;;;;;28.29;20.73;99594.09;7684060;32;37733;-76
2022/05/21 16:44:20;;;;;;;5.97;1.52;;;;;;;28.20;20.87;99590.84;7683909;32;39870;-77
2022/05/21 16:48:36;;;;;;;2.80;1.40;;;;;;;27.95;21.07;99599.97;7683757;32;40806;-77
2022/05/21 16:52:52;;;;;;;1.62;1.20;;;;;;;27.70;21.57;99589.47;7683570;32;37694;-77
2022/05/21 16:57:15;;;;;;;2.40;1.20;;;;;;;27.45;22.24;99597.72;7683839;32;38156;-77
2022/05/21 17:01:35;;;;;;;1.55;0.90;;;;;;;27.08;22.03;99595.03;7683566;32;39223;-76
2022/05/21 17:05:51;;;;;;;3.85;1.00;;;;;;;26.92;21.27;99590.56;7683479;32;40817;-76
2022/05/21 17:10:08;;;;;;;4.30;1.00;;;;;;;26.83;21.86;99587.25;7683411;32;38728;-78
2022/05/21 17:14:24;;;;;;;1.40;0.80;;;;;;;26.39;22.24;99594.44;7683346;32;37499;-78
2022/05/21 17:18:41;;;;;;;4.47;0.93;;;;;;;26.90;21.24;99587.31;7683601;32;38997;-78
2022/05/21 17:22:57;;;;;;;3.67;1.27;;;;;;;26.70;21.76;99583.16;7686448;32;40841;-81
2022/05/21 17:31:49;;;;;;;2.33;0.95;;;;;;;26.35;23.11;99584.41;7686343;32;36884;-77
2022/05/21 17:36:12;;;;;;;1.40;0.90;;;;;;;26.13;23.78;99581.41;7697575;32;39250;-77
2022/05/21 17:40:29;;;;;;;5.50;1.55;;;;;;;26.09;23.23;99585.31;7713058;32;39661;-76
2022/05/21 17:44:45;;;;;;;2.65;1.15;;;;;;;25.75;25.12;99588.91;7713070;32;38617;-77
2022/05/21 17:49:02;;;;;;;1.90;1.50;;;;;;;25.47;24.62;99592.94;7712835;32;37700;-76
2022/05/21 17:53:20;;;;;;;2.10;1.50;;;;;;;24.94;25.26;99601.25;7689104;32;39215;-77
2022/05/21 17:57:36;;;;;;;2.60;0.98;;;;;;;24.84;25.93;99599.09;7712503;32;40822;-77
2022/05/21 18:01:53;;;;;;;1.50;1.10;;;;;;;24.85;26.35;99595.13;7712682;32;37871;-77
2022/05/21 18:06:09;;;;;;;2.80;1.35;;;;;;;24.68;26.29;99604.78;7712820;32;36975;-77
2022/05/21 18:10:26;;;;;;;4.32;1.60;;;;;;;24.61;27.29;99610.25;7703518;32;39310;-77
2022/05/21 18:14:42;;;;;;;3.83;1.83;;;;;;;24.42;28.30;99608.28;7685910;32;39956;-77
2022/05/21 18:23:34;;;;;;;1.35;1.23;;;;;;;24.09;28.22;99615.22;7710767;32;36974;-76
2022/05/21 18:27:50;;;;;;;4.22;2.25;;;;;;;23.93;29.12;99618.88;7685774;32;39023;-77
2022/05/21 18:32:07;;;;;;;7.90;3.85;;;;;;;23.81;28.65;99627.37;7685004;32;39810;-78
2022/05/21 18:36:23;;;;;;;10.50;4.78;;;;;;;23.39;29.25;99631.59;7708071;32;38711;-77
2022/05/21 18:40:40;;;;;;;9.10;4.03;;;;;;;23.55;28.75;99627.97;7706643;32;37093;-76
2022/05/21 18:44:56;;;;;;;5.37;2.78;;;;;;;23.41;28.78;99634.03;7712196;32;39923;-73
2022/05/21 18:49:12;;;;;;;2.50;1.50;;;;;;;23.25;28.56;99640.44;7709272;32;40902;-77
2022/05/21 18:53:32;;;;;;;2.22;1.05;;;;;;;23.18;29.26;99634.69;7702641;32;37747;-77
2022/05/21 18:57:52;;;;;;;1.37;1.15;;;;;;;22.93;28.17;99638.81;7692874;32;36736;-77
2022/05/21 19:02:08;;;;;;;3.72;1.35;;;;;;;22.91;28.53;99632.81;7685585;32;40103;-78
2022/05/21 19:06:25;;;;;;;2.17;1.33;;;;;;;22.75;29.55;99630.81;7685438;32;40940;-77
2022/05/21 19:10:45;;;;;;;4.05;1.48;;;;;;;22.73;29.26;99632.34;7709140;32;38064;-76
2022/05/21 19:15:02;;;;;;;2.85;1.60;;;;;;;22.70;29.13;99636.66;7711931;32;36949;-76
2022/05/21 19:19:22;;;;;;;4.35;1.70;;;;;;;22.66;28.37;99655.19;7711836;32;39428;-77
2022/05/21 19:23:39;;;;;;;2.40;1.20;;;;;;;22.43;27.77;99655.78;7711831;32;40707;-76
2022/05/21 19:27:55;;;;;;;2.15;1.55;;;;;;;22.57;27.34;99660.91;7711805;32;37610;-77
2022/05/21 19:32:12;;;;;;;3.87;1.70;;;;;;;22.27;28.28;99664.06;7711685;32;36702;-77
2022/05/21 19:36:30;;;;;;;3.30;1.40;;;;;;;22.07;28.59;99671.38;7709222;32;39140;-77
2022/05/21 19:45:22;;;;;;;1.12;1.08;;;;;;;22.31;29.40;99687.19;7696451;32;38701;-76
2022/05/21 19:49:39;;;;;;;3.00;0.98;;;;;;;22.10;30.21;99697.66;7693637;32;37686;-76
2022/05/21 19:53:55;;;;;;;1.85;1.10;;;;;;;21.79;32.41;99698.31;7708746;32;39171;-77
2022/05/21 19:58:11;;;;;;;3.87;1.50;;;;;;;21.81;32.33;99701.53;7685636;32;39872;-76
2022/05/21 20:02:27;;;;;;;1.98;1.40;;;;;;;21.69;32.51;99708.72;7707233;32;37895;-78
2022/05/21 20:06:44;;;;;;;3.67;1.60;;;;;;;21.69;32.84;99716.22;7710036;32;37664;-77
2022/05/21 20:11:02;;;;;;;2.70;1.17;;;;;;;21.83;32.68;99713.09;7711407;32;39248;-77
2022/05/21 20:15:18;;;;;;;1.55;1.27;;;;;;;21.43;32.93;99722.91;7711188;32;40770;-78
2022/05/21 20:19:35;;;;;;;4.95;1.40;;;;;;;21.33;32.67;99732.50;7685823;32;37802;-78
2022/05/21 20:23:52;;;;;;;1.55;1.42;;;;;;;21.13;33.32;99733.41;7687253;32;35552;-78
2022/05/21 20:28:09;;;;;;;1.27;1.25;;;;;;;20.96;34.99;99735.22;7700047;32;39231;-76
2022/05/21 20:32:25;;;;;;;4.68;1.50;;;;;;;20.97;34.80;99731.31;7701355;32;40776;-77
2022/05/21 20:36:41;;;;;;;4.43;1.62;;;;;;;20.77;34.74;99737.72;7683148;32;37951;-77
2022/05/21 20:40:59;;;;;;;2.12;1.60;;;;;;;20.68;34.78;99746.12;7696092;32;36985;-76
2022/05/21 20:45:16;;;;;;;2.17;1.70;;;;;;;20.58;35.62;99743.75;7697181;32;39328;-76
2022/05/21 20:49:35;;;;;;;4.25;1.40;;;;;;;20.75;35.98;99740.03;7689087;32;40165;-77
2022/05/21 20:53:52;;;;;;;1.40;1.30;;;;;;;20.56;36.63;99737.75;7697875;32;38636;-76
2022/05/21 20:58:09;;;;;;;1.60;1.50;;;;;;;20.66;36.34;99742.06;7696011;32;37603;-76
2022/05/21 21:02:28;;;;;;;6.60;1.62;;;;;;;20.29;36.62;99744.66;7697538;32;40201;-77
2022/05/21 21:06:44;;;;;;;2.65;1.70;;;;;;;20.32;37.52;99739.25;7684417;32;40866;-77
2022/05/21 21:11:01;;;;;;;2.90;1.80;;;;;;;20.41;37.42;99745.50;7702193;32;38513;-76